Bei Facebook empfehlenBei Twitter postenGoogle plusPinterest

Das Wetter im Erzgebirge am 09.05.2016

Wetter und Klima am 09.05.2016 Holzhau im Erzgebirge (630m ü.NN)
Letzte gemessene Temperatur und Uhrzeit der Messung23:45:00 Uhr7.10 °C
Temperatur (Maximum / Höchstwert) und Uhrzeit der Messung15:00:00 Uhr20.90 °C
Temperatur (Minimum / Tiefstwert) und Uhrzeit der Messung23:45:007.10 °C
Errechneter Absolutwert der Temperaturschwankungen zwischen Tmin und Tmax des Tages13.80 K
Errechnete Tagesmitteltemperatur14.03750 °C
Gesamt - Niederschlag des Tages (in flüssiger Form)0.00 Liter / m²
Luftdruck (Maximum / Höchstwert) und Zeitpunkt der Messung21:45:00 Uhr1015.20 hPa
Luftdruck (Minimum / Tiefstwert) und Zeitpunkt der Messung04:00:00 Uhr1014.20 hPa
Errechneter Absolutwert der Luftdruckschwankungen des Tages1.00 hPa
Höchste gemessene Windgeschwindigkeit und Uhrzeit der Messung23:45:00 Uhr0.00 km/h
Errechnete Windhäufigkeit in Relation zu den Messwerten des Tages0.00000 %
Niedrigste Windkühle (Windchill) und Zeitpunkt der Messung23:45:00 Uhr7.10 °C
Taupunkt (Maximum / Höchstwert) und Uhrzeit der Messung06:45:00 Uhr11.50 °C
Taupunkt (Minimum / Tiefstwert) und Uhrzeit der Messung23:45:004.10 °C
Anzahl der automatisch eingelesenen Messwerte 96

Detaillierte Wetter- und Klima- Messwerte für den 09.05.2016 in Holzhau im Erzgebirge (630m ü.NN)
ZeitTemperaturLuftdruckRel. LuftfeuchteWindWindrichtungWindchillTaupunktNiederschlag l/m²
23:45:007.10 °C1014.60 hPa81.00 %4.10 °C 
23:30:007.10 °C1014.90 hPa81.00 %4.10 °C 
23:15:007.30 °C1014.80 hPa80.00 %4.10 °C 
23:00:007.50 °C1014.90 hPa79.00 %4.10 °C 
22:45:007.90 °C1014.90 hPa78.00 %4.30 °C 
22:30:008.40 °C1014.90 hPa77.00 %4.60 °C 
22:15:008.90 °C1015.00 hPa77.00 %5.10 °C 
22:00:009.10 °C1015.10 hPa76.00 %5.10 °C 
21:45:009.30 °C1015.20 hPa75.00 %5.10 °C 
21:30:009.80 °C1015.00 hPa74.00 %5.40 °C 
21:15:009.90 °C1015.10 hPa73.00 %5.30 °C 
21:00:0010.50 °C1015.10 hPa72.00 %5.70 °C 
20:45:0011.00 °C1015.10 hPa70.00 %5.70 °C 
20:30:0011.50 °C1015.10 hPa68.00 %5.80 °C 
20:15:0012.10 °C1015.00 hPa66.00 %5.90 °C 
20:00:0012.90 °C1014.90 hPa63.00 %6.00 °C 
19:45:0014.10 °C1014.90 hPa60.00 %6.50 °C 
19:30:0015.40 °C1014.80 hPa57.00 %6.90 °C 
19:15:0016.70 °C1014.70 hPa54.00 %7.40 °C 
19:00:0017.50 °C1014.40 hPa52.00 %7.50 °C 
18:45:0018.10 °C1014.40 hPa50.00 %7.50 °C 
18:30:0018.50 °C1014.30 hPa49.00 %7.60 °C 
18:15:0018.90 °C1014.30 hPa48.00 %7.70 °C 
18:00:0019.00 °C1014.50 hPa48.00 %7.80 °C 
17:45:0019.30 °C1014.30 hPa47.00 %7.70 °C 
17:30:0019.50 °C1014.30 hPa47.00 %7.90 °C 
17:15:0019.60 °C1014.30 hPa47.00 %8.00 °C 
17:00:0018.90 °C1014.50 hPa49.00 %8.00 °C 
16:45:0018.20 °C1014.70 hPa49.00 %7.30 °C 
16:30:0018.10 °C1014.90 hPa49.00 %7.20 °C 
16:15:0018.50 °C1014.70 hPa49.00 %7.60 °C 
16:00:0018.90 °C1014.90 hPa47.00 %7.40 °C 
15:45:0020.10 °C1014.90 hPa46.00 %8.10 °C 
15:30:0020.70 °C1014.80 hPa46.00 %8.70 °C 
15:15:0020.40 °C1014.50 hPa48.00 %9.00 °C 
15:00:0020.90 °C1014.80 hPa47.00 %9.20 °C 
14:45:0020.90 °C1014.60 hPa48.00 %9.50 °C 
14:30:0020.10 °C1014.90 hPa51.00 %9.70 °C 
14:15:0019.80 °C1014.50 hPa52.00 %9.70 °C 
14:00:0019.10 °C1014.70 hPa54.00 %9.60 °C 
13:45:0018.90 °C1014.80 hPa53.00 %9.10 °C 
13:30:0019.50 °C1014.70 hPa52.00 %9.40 °C 
13:15:0019.40 °C1014.80 hPa53.00 %9.60 °C 
13:00:0019.90 °C1014.80 hPa52.00 %9.80 °C 
12:45:0019.80 °C1014.70 hPa53.00 %10.00 °C 
12:30:0019.90 °C1014.80 hPa52.00 %9.80 °C 
12:15:0020.50 °C1015.00 hPa52.00 %10.30 °C 
12:00:0019.90 °C1014.90 hPa53.00 %10.00 °C 
11:45:0019.40 °C1015.10 hPa53.00 %9.60 °C 
11:30:0019.00 °C1014.90 hPa55.00 %9.80 °C 
11:15:0018.90 °C1014.90 hPa57.00 %10.20 °C 
11:00:0018.40 °C1015.00 hPa58.00 %10.00 °C 
10:45:0018.30 °C1014.90 hPa58.00 %9.90 °C 
10:30:0018.20 °C1015.10 hPa58.00 %9.80 °C 
10:15:0017.80 °C1015.20 hPa58.00 %9.40 °C 
10:00:0017.80 °C1015.10 hPa58.00 %9.40 °C 
09:45:0017.50 °C1015.10 hPa59.00 %9.40 °C 
09:30:0016.90 °C1015.10 hPa62.00 %9.60 °C 
09:15:0016.60 °C1015.00 hPa62.00 %9.30 °C 
09:00:0016.20 °C1015.00 hPa64.00 %9.40 °C 
08:45:0015.80 °C1015.00 hPa65.00 %9.20 °C 
08:30:0015.60 °C1014.90 hPa66.00 %9.30 °C 
08:15:0015.30 °C1015.10 hPa69.00 %9.70 °C 
08:00:0014.90 °C1015.10 hPa69.00 %9.30 °C 
07:45:0014.60 °C1015.00 hPa70.00 %9.20 °C 
07:30:0014.60 °C1015.00 hPa71.00 %9.40 °C 
07:15:0014.90 °C1015.00 hPa72.00 %9.90 °C 
07:00:0014.90 °C1014.90 hPa76.00 %10.70 °C 
06:45:0014.70 °C1014.70 hPa81.00 %11.50 °C 
06:30:0013.00 °C1014.60 hPa86.00 %10.70 °C 
06:15:009.90 °C1014.60 hPa88.00 %8.00 °C 
06:00:007.80 °C1014.60 hPa86.00 %5.60 °C 
05:45:007.60 °C1014.40 hPa86.00 %5.40 °C 
05:30:007.80 °C1014.30 hPa86.00 %5.60 °C 
05:15:008.40 °C1014.30 hPa86.00 %6.20 °C 
05:00:008.40 °C1014.30 hPa86.00 %6.20 °C 
04:45:008.50 °C1014.30 hPa86.00 %6.30 °C 
04:30:008.50 °C1014.30 hPa85.00 %6.10 °C 
04:15:008.50 °C1014.30 hPa85.00 %6.10 °C 
04:00:008.40 °C1014.20 hPa85.00 %6.00 °C 
03:45:008.40 °C1014.30 hPa84.00 %5.90 °C 
03:30:008.50 °C1014.30 hPa84.00 %6.00 °C 
03:15:008.70 °C1014.40 hPa84.00 %6.20 °C 
03:00:008.80 °C1014.20 hPa84.00 %6.20 °C 
02:45:008.90 °C1014.30 hPa83.00 %6.20 °C 
02:30:008.90 °C1014.40 hPa83.00 %6.20 °C 
02:15:009.00 °C1014.40 hPa82.00 %6.10 °C 
02:00:009.40 °C1014.40 hPa82.00 %6.50 °C 
01:45:009.30 °C1014.60 hPa83.00 %6.60 °C 
01:30:008.90 °C1014.80 hPa82.00 %6.00 °C 
01:15:008.50 °C1014.60 hPa82.00 %5.60 °C 
01:00:008.40 °C1014.80 hPa81.00 %5.30 °C 
00:45:008.80 °C1014.80 hPa81.00 %5.70 °C 
00:30:009.00 °C1014.90 hPa81.00 %5.90 °C 
00:15:009.10 °C1014.90 hPa81.00 %6.00 °C 
00:00:008.60 °C1014.80 hPa82.00 %5.70 °C 

Permanenter Link zu dieser Seite: Wetter im Erzgebirge am 09.05.2016
Performance-Info: Die Erstellung der Seite / Statistik(en) / Tabelle(n) erforderte 5 Datenbankserver-Abfrage(n) und dauerte 101 Millisekunden. (Dieser Messwert ist von der Gesamt-Auslastung des Servers abhängig.)
Erzgebirge - Wetter | Erzgebirge - Wetter (Mobilgeräte) | Komplette Klimadatenbank